sensor_id;sensor_type;location;lat;lon;timestamp;P1;durP1;ratioP1;P2;durP2;ratioP2
29432;SDS011;16405;53.964;13.448;2023-07-31T00:03:06;12.15;;;1.85;;
29432;SDS011;16405;53.964;13.448;2023-07-31T00:05:35;8.00;;;1.80;;
29432;SDS011;16405;53.964;13.448;2023-07-31T00:08:26;8.80;;;1.98;;
29432;SDS011;16405;53.964;13.448;2023-07-31T00:10:52;9.82;;;1.83;;
29432;SDS011;16405;53.964;13.448;2023-07-31T00:13:18;8.57;;;1.88;;
29432;SDS011;16405;53.964;13.448;2023-07-31T00:15:50;7.60;;;1.70;;
29432;SDS011;16405;53.964;13.448;2023-07-31T00:18:21;6.07;;;1.60;;
29432;SDS011;16405;53.964;13.448;2023-07-31T00:23:39;4.72;;;1.55;;
29432;SDS011;16405;53.964;13.448;2023-07-31T00:32:27;5.07;;;1.50;;
29432;SDS011;16405;53.964;13.448;2023-07-31T00:35:10;5.40;;;1.38;;
29432;SDS011;16405;53.964;13.448;2023-07-31T00:37:45;13.63;;;1.75;;
29432;SDS011;16405;53.964;13.448;2023-07-31T00:40:11;8.50;;;1.70;;
29432;SDS011;16405;53.964;13.448;2023-07-31T00:42:38;9.02;;;1.83;;
29432;SDS011;16405;53.964;13.448;2023-07-31T00:45:10;5.78;;;1.40;;
29432;SDS011;16405;53.964;13.448;2023-07-31T00:47:56;6.63;;;1.30;;
29432;SDS011;16405;53.964;13.448;2023-07-31T00:50:33;7.93;;;1.50;;
29432;SDS011;16405;53.964;13.448;2023-07-31T00:53:27;6.85;;;1.60;;
29432;SDS011;16405;53.964;13.448;2023-07-31T00:55:53;7.10;;;1.67;;
29432;SDS011;16405;53.964;13.448;2023-07-31T00:58:22;7.57;;;1.83;;
29432;SDS011;16405;53.964;13.448;2023-07-31T01:00:57;7.82;;;1.58;;
29432;SDS011;16405;53.964;13.448;2023-07-31T01:03:23;8.27;;;1.42;;
29432;SDS011;16405;53.964;13.448;2023-07-31T01:12:44;7.15;;;1.45;;
29432;SDS011;16405;53.964;13.448;2023-07-31T01:15:11;8.25;;;1.80;;
29432;SDS011;16405;53.964;13.448;2023-07-31T01:17:59;6.18;;;1.60;;
29432;SDS011;16405;53.964;13.448;2023-07-31T01:20:28;5.30;;;1.50;;
29432;SDS011;16405;53.964;13.448;2023-07-31T01:26:18;3.67;;;1.25;;
29432;SDS011;16405;53.964;13.448;2023-07-31T01:31:59;7.72;;;1.70;;
29432;SDS011;16405;53.964;13.448;2023-07-31T01:34:38;10.27;;;1.67;;
29432;SDS011;16405;53.964;13.448;2023-07-31T01:40:28;7.50;;;1.50;;
29432;SDS011;16405;53.964;13.448;2023-07-31T01:45:48;8.70;;;1.75;;
29432;SDS011;16405;53.964;13.448;2023-07-31T01:51:38;4.90;;;1.40;;
29432;SDS011;16405;53.964;13.448;2023-07-31T01:54:05;4.57;;;1.25;;
29432;SDS011;16405;53.964;13.448;2023-07-31T01:56:56;6.88;;;1.50;;
29432;SDS011;16405;53.964;13.448;2023-07-31T01:59:22;7.18;;;1.73;;
29432;SDS011;16405;53.964;13.448;2023-07-31T02:01:48;7.65;;;1.38;;
29432;SDS011;16405;53.964;13.448;2023-07-31T02:07:23;8.90;;;1.70;;
29432;SDS011;16405;53.964;13.448;2023-07-31T02:10:00;5.85;;;1.52;;
29432;SDS011;16405;53.964;13.448;2023-07-31T02:15:08;6.15;;;1.58;;
29432;SDS011;16405;53.964;13.448;2023-07-31T02:17:34;4.10;;;1.20;;
29432;SDS011;16405;53.964;13.448;2023-07-31T02:20:28;6.60;;;1.52;;
29432;SDS011;16405;53.964;13.448;2023-07-31T02:22:54;7.07;;;1.75;;
29432;SDS011;16405;53.964;13.448;2023-07-31T02:25:29;10.00;;;1.75;;
29432;SDS011;16405;53.964;13.448;2023-07-31T02:28:12;6.40;;;1.83;;
29432;SDS011;16405;53.964;13.448;2023-07-31T02:31:07;11.68;;;1.95;;
29432;SDS011;16405;53.964;13.448;2023-07-31T02:33:34;5.03;;;1.60;;
29432;SDS011;16405;53.964;13.448;2023-07-31T02:39:56;10.05;;;1.88;;
29432;SDS011;16405;53.964;13.448;2023-07-31T02:46:19;12.10;;;2.50;;
29432;SDS011;16405;53.964;13.448;2023-07-31T02:48:57;15.50;;;2.20;;
29432;SDS011;16405;53.964;13.448;2023-07-31T02:51:23;9.60;;;1.88;;
29432;SDS011;16405;53.964;13.448;2023-07-31T02:54:02;12.38;;;1.73;;
29432;SDS011;16405;53.964;13.448;2023-07-31T02:56:28;7.75;;;2.22;;
29432;SDS011;16405;53.964;13.448;2023-07-31T03:01:46;7.88;;;2.05;;
29432;SDS011;16405;53.964;13.448;2023-07-31T03:04:12;7.70;;;2.15;;
29432;SDS011;16405;53.964;13.448;2023-07-31T03:06:38;7.03;;;1.80;;
29432;SDS011;16405;53.964;13.448;2023-07-31T03:09:19;13.50;;;2.38;;
29432;SDS011;16405;53.964;13.448;2023-07-31T03:15:08;5.68;;;1.90;;
29432;SDS011;16405;53.964;13.448;2023-07-31T03:20:29;10.93;;;2.13;;
29432;SDS011;16405;53.964;13.448;2023-07-31T03:22:54;7.32;;;2.53;;
29432;SDS011;16405;53.964;13.448;2023-07-31T03:25:29;16.38;;;2.80;;
29432;SDS011;16405;53.964;13.448;2023-07-31T03:28:10;10.57;;;3.20;;
29432;SDS011;16405;53.964;13.448;2023-07-31T03:30:53;9.98;;;3.58;;
29432;SDS011;16405;53.964;13.448;2023-07-31T03:33:29;13.60;;;3.00;;
29432;SDS011;16405;53.964;13.448;2023-07-31T03:35:55;7.90;;;2.70;;
29432;SDS011;16405;53.964;13.448;2023-07-31T03:38:21;6.53;;;2.08;;
29432;SDS011;16405;53.964;13.448;2023-07-31T03:43:38;8.00;;;3.22;;
29432;SDS011;16405;53.964;13.448;2023-07-31T03:46:04;17.27;;;3.65;;
29432;SDS011;16405;53.964;13.448;2023-07-31T03:51:21;14.70;;;3.17;;
29432;SDS011;16405;53.964;13.448;2023-07-31T03:53:50;15.50;;;3.00;;
29432;SDS011;16405;53.964;13.448;2023-07-31T03:59:27;13.20;;;3.00;;
29432;SDS011;16405;53.964;13.448;2023-07-31T04:02:37;14.98;;;3.03;;
29432;SDS011;16405;53.964;13.448;2023-07-31T04:05:02;11.88;;;3.22;;
29432;SDS011;16405;53.964;13.448;2023-07-31T04:08:10;7.82;;;2.83;;
29432;SDS011;16405;53.964;13.448;2023-07-31T04:10:48;11.50;;;3.30;;
29432;SDS011;16405;53.964;13.448;2023-07-31T04:13:17;11.32;;;2.70;;
29432;SDS011;16405;53.964;13.448;2023-07-31T04:16:44;8.52;;;2.47;;
29432;SDS011;16405;53.964;13.448;2023-07-31T04:19:20;7.53;;;2.17;;
29432;SDS011;16405;53.964;13.448;2023-07-31T04:21:49;8.00;;;2.10;;
29432;SDS011;16405;53.964;13.448;2023-07-31T04:31:10;7.43;;;2.00;;
29432;SDS011;16405;53.964;13.448;2023-07-31T04:39:53;6.57;;;1.90;;
29432;SDS011;16405;53.964;13.448;2023-07-31T04:50:38;8.80;;;1.88;;
29432;SDS011;16405;53.964;13.448;2023-07-31T04:59:56;8.77;;;2.22;;
29432;SDS011;16405;53.964;13.448;2023-07-31T05:03:10;6.78;;;2.13;;
29432;SDS011;16405;53.964;13.448;2023-07-31T05:08:45;11.05;;;2.22;;
29432;SDS011;16405;53.964;13.448;2023-07-31T05:11:10;8.98;;;2.00;;
29432;SDS011;16405;53.964;13.448;2023-07-31T05:13:50;10.73;;;2.58;;
29432;SDS011;16405;53.964;13.448;2023-07-31T05:16:29;9.63;;;2.25;;
29432;SDS011;16405;53.964;13.448;2023-07-31T05:18:55;6.40;;;2.10;;
29432;SDS011;16405;53.964;13.448;2023-07-31T05:25:32;8.45;;;2.10;;
29432;SDS011;16405;53.964;13.448;2023-07-31T05:27:58;9.90;;;2.00;;
29432;SDS011;16405;53.964;13.448;2023-07-31T05:37:00;9.88;;;1.98;;
29432;SDS011;16405;53.964;13.448;2023-07-31T05:39:41;6.43;;;1.90;;
29432;SDS011;16405;53.964;13.448;2023-07-31T05:42:06;8.93;;;2.03;;
29432;SDS011;16405;53.964;13.448;2023-07-31T05:44:56;9.70;;;2.15;;
29432;SDS011;16405;53.964;13.448;2023-07-31T05:47:22;12.95;;;2.10;;
29432;SDS011;16405;53.964;13.448;2023-07-31T05:49:48;12.40;;;2.63;;
29432;SDS011;16405;53.964;13.448;2023-07-31T05:55:41;7.15;;;2.22;;
29432;SDS011;16405;53.964;13.448;2023-07-31T05:58:21;5.22;;;1.90;;
29432;SDS011;16405;53.964;13.448;2023-07-31T06:00:56;11.00;;;2.47;;
29432;SDS011;16405;53.964;13.448;2023-07-31T06:07:09;11.10;;;2.47;;
29432;SDS011;16405;53.964;13.448;2023-07-31T06:12:57;6.85;;;2.00;;
29432;SDS011;16405;53.964;13.448;2023-07-31T06:15:24;7.73;;;1.77;;
29432;SDS011;16405;53.964;13.448;2023-07-31T06:18:02;7.82;;;1.83;;
29432;SDS011;16405;53.964;13.448;2023-07-31T06:20:29;10.47;;;2.07;;
29432;SDS011;16405;53.964;13.448;2023-07-31T06:30:05;7.82;;;1.80;;
29432;SDS011;16405;53.964;13.448;2023-07-31T06:33:00;6.30;;;2.17;;
29432;SDS011;16405;53.964;13.448;2023-07-31T06:42:31;13.63;;;2.55;;
29432;SDS011;16405;53.964;13.448;2023-07-31T06:44:57;11.70;;;2.67;;
29432;SDS011;16405;53.964;13.448;2023-07-31T06:47:23;14.10;;;2.40;;
29432;SDS011;16405;53.964;13.448;2023-07-31T06:49:51;8.07;;;2.35;;
29432;SDS011;16405;53.964;13.448;2023-07-31T06:52:30;9.20;;;2.65;;
29432;SDS011;16405;53.964;13.448;2023-07-31T06:55:43;7.22;;;2.13;;
29432;SDS011;16405;53.964;13.448;2023-07-31T06:58:32;5.45;;;2.10;;
29432;SDS011;16405;53.964;13.448;2023-07-31T07:01:13;10.40;;;2.75;;
29432;SDS011;16405;53.964;13.448;2023-07-31T07:03:59;8.20;;;2.20;;
29432;SDS011;16405;53.964;13.448;2023-07-31T07:06:33;5.32;;;1.92;;
29432;SDS011;16405;53.964;13.448;2023-07-31T07:08:59;4.45;;;1.85;;
29432;SDS011;16405;53.964;13.448;2023-07-31T07:11:27;7.03;;;2.15;;
29432;SDS011;16405;53.964;13.448;2023-07-31T07:27:04;7.45;;;2.25;;
29432;SDS011;16405;53.964;13.448;2023-07-31T07:36:30;4.88;;;1.90;;
29432;SDS011;16405;53.964;13.448;2023-07-31T07:42:27;12.48;;;2.08;;
29432;SDS011;16405;53.964;13.448;2023-07-31T07:44:57;8.13;;;1.60;;
29432;SDS011;16405;53.964;13.448;2023-07-31T07:47:22;4.43;;;1.85;;
29432;SDS011;16405;53.964;13.448;2023-07-31T07:49:48;4.85;;;1.50;;
29432;SDS011;16405;53.964;13.448;2023-07-31T07:52:14;5.20;;;1.70;;
29432;SDS011;16405;53.964;13.448;2023-07-31T07:54:42;3.40;;;1.50;;
29432;SDS011;16405;53.964;13.448;2023-07-31T07:57:10;9.82;;;1.30;;
29432;SDS011;16405;53.964;13.448;2023-07-31T07:59:36;4.65;;;1.67;;
29432;SDS011;16405;53.964;13.448;2023-07-31T08:02:01;3.38;;;1.60;;
29432;SDS011;16405;53.964;13.448;2023-07-31T08:04:27;3.55;;;1.13;;
29432;SDS011;16405;53.964;13.448;2023-07-31T08:06:53;3.80;;;1.30;;
29432;SDS011;16405;53.964;13.448;2023-07-31T08:09:19;5.20;;;2.17;;
29432;SDS011;16405;53.964;13.448;2023-07-31T08:11:52;5.32;;;2.00;;
29432;SDS011;16405;53.964;13.448;2023-07-31T08:14:18;3.88;;;1.63;;
29432;SDS011;16405;53.964;13.448;2023-07-31T08:16:44;2.70;;;1.35;;
29432;SDS011;16405;53.964;13.448;2023-07-31T08:19:10;7.00;;;2.65;;
29432;SDS011;16405;53.964;13.448;2023-07-31T08:21:36;3.65;;;1.40;;
29432;SDS011;16405;53.964;13.448;2023-07-31T08:24:07;3.10;;;1.50;;
29432;SDS011;16405;53.964;13.448;2023-07-31T08:26:33;4.15;;;1.52;;
29432;SDS011;16405;53.964;13.448;2023-07-31T08:28:59;3.13;;;1.50;;
29432;SDS011;16405;53.964;13.448;2023-07-31T08:31:24;5.93;;;1.30;;
29432;SDS011;16405;53.964;13.448;2023-07-31T08:33:54;4.40;;;1.38;;
29432;SDS011;16405;53.964;13.448;2023-07-31T08:36:22;4.32;;;1.40;;
29432;SDS011;16405;53.964;13.448;2023-07-31T08:38:47;3.53;;;1.50;;
29432;SDS011;16405;53.964;13.448;2023-07-31T08:41:14;3.85;;;1.48;;
29432;SDS011;16405;53.964;13.448;2023-07-31T08:43:42;3.03;;;1.25;;
29432;SDS011;16405;53.964;13.448;2023-07-31T08:46:15;2.75;;;1.27;;
29432;SDS011;16405;53.964;13.448;2023-07-31T08:48:42;3.67;;;1.15;;
29432;SDS011;16405;53.964;13.448;2023-07-31T08:51:10;4.97;;;1.90;;
29432;SDS011;16405;53.964;13.448;2023-07-31T08:53:36;2.35;;;1.15;;
29432;SDS011;16405;53.964;13.448;2023-07-31T08:56:08;2.03;;;1.20;;
29432;SDS011;16405;53.964;13.448;2023-07-31T08:58:36;4.47;;;1.60;;
29432;SDS011;16405;53.964;13.448;2023-07-31T09:01:04;2.33;;;1.33;;
29432;SDS011;16405;53.964;13.448;2023-07-31T09:03:35;6.55;;;1.75;;
29432;SDS011;16405;53.964;13.448;2023-07-31T09:06:02;2.33;;;1.23;;
29432;SDS011;16405;53.964;13.448;2023-07-31T09:08:31;2.03;;;1.25;;
29432;SDS011;16405;53.964;13.448;2023-07-31T09:11:04;3.78;;;1.55;;
29432;SDS011;16405;53.964;13.448;2023-07-31T09:13:30;5.20;;;1.70;;
29432;SDS011;16405;53.964;13.448;2023-07-31T09:15:57;7.10;;;1.60;;
29432;SDS011;16405;53.964;13.448;2023-07-31T09:18:24;2.75;;;1.30;;
29432;SDS011;16405;53.964;13.448;2023-07-31T09:21:03;2.72;;;1.48;;
29432;SDS011;16405;53.964;13.448;2023-07-31T09:23:44;4.28;;;1.50;;
29432;SDS011;16405;53.964;13.448;2023-07-31T09:34:05;2.25;;;1.25;;
29432;SDS011;16405;53.964;13.448;2023-07-31T09:36:31;4.55;;;1.33;;
29432;SDS011;16405;53.964;13.448;2023-07-31T09:39:10;5.03;;;1.67;;
29432;SDS011;16405;53.964;13.448;2023-07-31T09:41:48;5.97;;;1.65;;
29432;SDS011;16405;53.964;13.448;2023-07-31T09:44:39;6.28;;;1.50;;
29432;SDS011;16405;53.964;13.448;2023-07-31T09:47:06;2.95;;;1.40;;
29432;SDS011;16405;53.964;13.448;2023-07-31T09:49:51;4.03;;;1.45;;
29432;SDS011;16405;53.964;13.448;2023-07-31T09:52:21;5.47;;;1.80;;
29432;SDS011;16405;53.964;13.448;2023-07-31T09:54:50;5.82;;;1.40;;
29432;SDS011;16405;53.964;13.448;2023-07-31T09:57:20;3.05;;;1.38;;
29432;SDS011;16405;53.964;13.448;2023-07-31T09:59:50;3.05;;;1.50;;
29432;SDS011;16405;53.964;13.448;2023-07-31T10:02:20;2.92;;;1.40;;
29432;SDS011;16405;53.964;13.448;2023-07-31T10:04:51;3.63;;;1.55;;
29432;SDS011;16405;53.964;13.448;2023-07-31T10:07:23;2.42;;;1.23;;
29432;SDS011;16405;53.964;13.448;2023-07-31T10:09:59;4.03;;;1.30;;
29432;SDS011;16405;53.964;13.448;2023-07-31T10:12:27;3.75;;;1.45;;
29432;SDS011;16405;53.964;13.448;2023-07-31T10:14:54;6.93;;;1.55;;
29432;SDS011;16405;53.964;13.448;2023-07-31T10:17:24;4.72;;;1.55;;
29432;SDS011;16405;53.964;13.448;2023-07-31T10:19:54;2.83;;;1.25;;
29432;SDS011;16405;53.964;13.448;2023-07-31T10:22:23;5.65;;;1.40;;
29432;SDS011;16405;53.964;13.448;2023-07-31T10:24:54;3.63;;;1.25;;
29432;SDS011;16405;53.964;13.448;2023-07-31T10:27:22;2.88;;;1.23;;
29432;SDS011;16405;53.964;13.448;2023-07-31T10:29:52;4.30;;;1.55;;
29432;SDS011;16405;53.964;13.448;2023-07-31T10:32:24;2.40;;;1.25;;
29432;SDS011;16405;53.964;13.448;2023-07-31T10:34:54;3.25;;;1.10;;
29432;SDS011;16405;53.964;13.448;2023-07-31T10:37:31;2.22;;;1.10;;
29432;SDS011;16405;53.964;13.448;2023-07-31T10:40:12;3.05;;;1.27;;
29432;SDS011;16405;53.964;13.448;2023-07-31T10:43:04;2.95;;;1.13;;
29432;SDS011;16405;53.964;13.448;2023-07-31T10:45:34;4.40;;;1.30;;
29432;SDS011;16405;53.964;13.448;2023-07-31T10:48:07;2.75;;;1.20;;
29432;SDS011;16405;53.964;13.448;2023-07-31T10:50:54;2.20;;;1.13;;
29432;SDS011;16405;53.964;13.448;2023-07-31T10:53:28;5.10;;;1.08;;
29432;SDS011;16405;53.964;13.448;2023-07-31T10:56:06;3.33;;;1.25;;
29432;SDS011;16405;53.964;13.448;2023-07-31T10:58:46;4.63;;;1.10;;
29432;SDS011;16405;53.964;13.448;2023-07-31T11:01:50;1.60;;;0.80;;
29432;SDS011;16405;53.964;13.448;2023-07-31T11:04:27;3.85;;;1.10;;
29432;SDS011;16405;53.964;13.448;2023-07-31T11:06:59;2.25;;;1.00;;
29432;SDS011;16405;53.964;13.448;2023-07-31T11:09:28;5.55;;;1.45;;
29432;SDS011;16405;53.964;13.448;2023-07-31T11:12:08;2.72;;;1.13;;
29432;SDS011;16405;53.964;13.448;2023-07-31T11:14:35;3.38;;;1.42;;
29432;SDS011;16405;53.964;13.448;2023-07-31T11:17:07;5.85;;;1.20;;
29432;SDS011;16405;53.964;13.448;2023-07-31T11:19:35;1.92;;;1.13;;
29432;SDS011;16405;53.964;13.448;2023-07-31T11:22:03;2.05;;;1.08;;
29432;SDS011;16405;53.964;13.448;2023-07-31T11:24:30;5.60;;;1.10;;
29432;SDS011;16405;53.964;13.448;2023-07-31T11:26:55;2.92;;;1.20;;
29432;SDS011;16405;53.964;13.448;2023-07-31T11:29:27;4.60;;;1.13;;
29432;SDS011;16405;53.964;13.448;2023-07-31T11:31:53;3.50;;;1.10;;
29432;SDS011;16405;53.964;13.448;2023-07-31T11:34:19;4.03;;;1.52;;
29432;SDS011;16405;53.964;13.448;2023-07-31T11:36:55;3.13;;;1.10;;
29432;SDS011;16405;53.964;13.448;2023-07-31T11:39:21;2.95;;;1.40;;
29432;SDS011;16405;53.964;13.448;2023-07-31T11:41:47;2.63;;;1.02;;
29432;SDS011;16405;53.964;13.448;2023-07-31T11:44:12;2.00;;;0.95;;
29432;SDS011;16405;53.964;13.448;2023-07-31T11:46:38;2.03;;;1.20;;
29432;SDS011;16405;53.964;13.448;2023-07-31T11:49:04;3.33;;;1.33;;
29432;SDS011;16405;53.964;13.448;2023-07-31T11:51:31;3.50;;;1.02;;
29432;SDS011;16405;53.964;13.448;2023-07-31T11:53:57;1.92;;;1.20;;
29432;SDS011;16405;53.964;13.448;2023-07-31T11:56:27;1.88;;;1.05;;
29432;SDS011;16405;53.964;13.448;2023-07-31T11:58:57;6.72;;;1.40;;
29432;SDS011;16405;53.964;13.448;2023-07-31T12:01:27;2.55;;;0.95;;
29432;SDS011;16405;53.964;13.448;2023-07-31T12:03:53;1.92;;;0.90;;
29432;SDS011;16405;53.964;13.448;2023-07-31T12:06:20;2.33;;;1.15;;
29432;SDS011;16405;53.964;13.448;2023-07-31T12:08:46;5.93;;;1.35;;
29432;SDS011;16405;53.964;13.448;2023-07-31T12:11:13;3.53;;;1.42;;
29432;SDS011;16405;53.964;13.448;2023-07-31T12:13:40;3.15;;;1.05;;
29432;SDS011;16405;53.964;13.448;2023-07-31T12:16:15;2.03;;;1.05;;
29432;SDS011;16405;53.964;13.448;2023-07-31T12:18:41;1.40;;;1.00;;
29432;SDS011;16405;53.964;13.448;2023-07-31T12:21:07;2.55;;;1.40;;
29432;SDS011;16405;53.964;13.448;2023-07-31T12:23:34;2.08;;;0.98;;
29432;SDS011;16405;53.964;13.448;2023-07-31T12:31:13;2.60;;;0.93;;
29432;SDS011;16405;53.964;13.448;2023-07-31T12:33:52;1.48;;;0.90;;
29432;SDS011;16405;53.964;13.448;2023-07-31T12:36:20;1.65;;;0.60;;
29432;SDS011;16405;53.964;13.448;2023-07-31T12:39:00;3.25;;;0.90;;
29432;SDS011;16405;53.964;13.448;2023-07-31T12:41:37;4.25;;;1.00;;
29432;SDS011;16405;53.964;13.448;2023-07-31T12:44:03;2.10;;;0.65;;
29432;SDS011;16405;53.964;13.448;2023-07-31T12:46:29;1.10;;;0.93;;
29432;SDS011;16405;53.964;13.448;2023-07-31T12:49:02;1.05;;;0.80;;
29432;SDS011;16405;53.964;13.448;2023-07-31T12:51:28;1.40;;;0.85;;
29432;SDS011;16405;53.964;13.448;2023-07-31T12:53:53;0.95;;;0.68;;
29432;SDS011;16405;53.964;13.448;2023-07-31T12:56:19;3.22;;;1.02;;
29432;SDS011;16405;53.964;13.448;2023-07-31T12:58:45;1.67;;;0.80;;
29432;SDS011;16405;53.964;13.448;2023-07-31T13:01:14;2.22;;;0.80;;
29432;SDS011;16405;53.964;13.448;2023-07-31T13:03:40;2.05;;;0.90;;
29432;SDS011;16405;53.964;13.448;2023-07-31T13:06:06;5.25;;;0.80;;
29432;SDS011;16405;53.964;13.448;2023-07-31T13:08:32;1.63;;;0.80;;
29432;SDS011;16405;53.964;13.448;2023-07-31T13:10:57;3.20;;;0.70;;
29432;SDS011;16405;53.964;13.448;2023-07-31T13:13:23;1.88;;;0.75;;
29432;SDS011;16405;53.964;13.448;2023-07-31T13:15:49;4.00;;;0.85;;
29432;SDS011;16405;53.964;13.448;2023-07-31T13:18:15;3.20;;;0.68;;
29432;SDS011;16405;53.964;13.448;2023-07-31T13:20:43;1.17;;;0.90;;
29432;SDS011;16405;53.964;13.448;2023-07-31T13:23:09;0.80;;;0.60;;
29432;SDS011;16405;53.964;13.448;2023-07-31T13:25:34;2.08;;;0.70;;
29432;SDS011;16405;53.964;13.448;2023-07-31T13:28:00;1.23;;;0.50;;
29432;SDS011;16405;53.964;13.448;2023-07-31T13:30:26;1.45;;;0.75;;
29432;SDS011;16405;53.964;13.448;2023-07-31T13:32:52;2.08;;;0.80;;
29432;SDS011;16405;53.964;13.448;2023-07-31T13:35:18;1.08;;;0.80;;
29432;SDS011;16405;53.964;13.448;2023-07-31T13:37:44;0.95;;;0.68;;
29432;SDS011;16405;53.964;13.448;2023-07-31T13:40:12;1.92;;;0.90;;
29432;SDS011;16405;53.964;13.448;2023-07-31T13:42:37;1.58;;;0.73;;
29432;SDS011;16405;53.964;13.448;2023-07-31T13:45:03;0.93;;;0.80;;
29432;SDS011;16405;53.964;13.448;2023-07-31T13:47:30;5.03;;;1.00;;
29432;SDS011;16405;53.964;13.448;2023-07-31T13:49:57;1.23;;;0.52;;
29432;SDS011;16405;53.964;13.448;2023-07-31T13:52:22;2.53;;;0.70;;
29432;SDS011;16405;53.964;13.448;2023-07-31T13:54:51;2.35;;;0.50;;
29432;SDS011;16405;53.964;13.448;2023-07-31T13:57:17;5.65;;;0.60;;
29432;SDS011;16405;53.964;13.448;2023-07-31T13:59:43;1.10;;;0.70;;
29432;SDS011;16405;53.964;13.448;2023-07-31T14:02:08;2.47;;;0.77;;
29432;SDS011;16405;53.964;13.448;2023-07-31T14:04:34;3.92;;;1.80;;
29432;SDS011;16405;53.964;13.448;2023-07-31T14:07:00;1.60;;;1.10;;
29432;SDS011;16405;53.964;13.448;2023-07-31T14:09:33;3.13;;;0.95;;
29432;SDS011;16405;53.964;13.448;2023-07-31T14:11:59;5.55;;;1.15;;
29432;SDS011;16405;53.964;13.448;2023-07-31T14:14:24;2.00;;;1.00;;
29432;SDS011;16405;53.964;13.448;2023-07-31T14:16:50;4.45;;;0.98;;
29432;SDS011;16405;53.964;13.448;2023-07-31T14:19:16;2.10;;;0.93;;
29432;SDS011;16405;53.964;13.448;2023-07-31T14:21:41;1.50;;;1.00;;
29432;SDS011;16405;53.964;13.448;2023-07-31T14:24:07;3.08;;;0.73;;
29432;SDS011;16405;53.964;13.448;2023-07-31T14:26:35;3.45;;;1.15;;
29432;SDS011;16405;53.964;13.448;2023-07-31T14:29:01;3.00;;;1.50;;
29432;SDS011;16405;53.964;13.448;2023-07-31T14:31:27;1.67;;;1.08;;
29432;SDS011;16405;53.964;13.448;2023-07-31T14:33:52;2.85;;;1.13;;
29432;SDS011;16405;53.964;13.448;2023-07-31T14:36:18;3.08;;;1.30;;
29432;SDS011;16405;53.964;13.448;2023-07-31T14:38:44;2.45;;;1.30;;
29432;SDS011;16405;53.964;13.448;2023-07-31T14:41:10;4.40;;;1.85;;
29432;SDS011;16405;53.964;13.448;2023-07-31T14:43:35;5.25;;;1.48;;
29432;SDS011;16405;53.964;13.448;2023-07-31T14:46:04;3.72;;;1.60;;
29432;SDS011;16405;53.964;13.448;2023-07-31T14:48:30;3.85;;;1.75;;
29432;SDS011;16405;53.964;13.448;2023-07-31T14:50:56;5.82;;;2.08;;
29432;SDS011;16405;53.964;13.448;2023-07-31T14:53:22;8.43;;;2.30;;
29432;SDS011;16405;53.964;13.448;2023-07-31T14:55:47;7.22;;;3.40;;
29432;SDS011;16405;53.964;13.448;2023-07-31T14:58:13;12.88;;;4.22;;
29432;SDS011;16405;53.964;13.448;2023-07-31T15:00:39;11.43;;;5.00;;
29432;SDS011;16405;53.964;13.448;2023-07-31T15:03:08;10.10;;;4.70;;
29432;SDS011;16405;53.964;13.448;2023-07-31T15:05:34;10.52;;;4.82;;
29432;SDS011;16405;53.964;13.448;2023-07-31T15:07:59;8.57;;;4.03;;
29432;SDS011;16405;53.964;13.448;2023-07-31T15:10:27;7.40;;;3.65;;
29432;SDS011;16405;53.964;13.448;2023-07-31T15:12:53;6.35;;;3.60;;
29432;SDS011;16405;53.964;13.448;2023-07-31T15:15:19;7.90;;;3.85;;
29432;SDS011;16405;53.964;13.448;2023-07-31T15:17:45;7.38;;;4.10;;
29432;SDS011;16405;53.964;13.448;2023-07-31T15:20:11;6.53;;;4.13;;
29432;SDS011;16405;53.964;13.448;2023-07-31T15:22:37;8.30;;;4.55;;
29432;SDS011;16405;53.964;13.448;2023-07-31T15:25:03;3.78;;;1.92;;
29432;SDS011;16405;53.964;13.448;2023-07-31T15:27:29;1.48;;;0.50;;
29432;SDS011;16405;53.964;13.448;2023-07-31T15:29:55;0.17;;;0.10;;
29432;SDS011;16405;53.964;13.448;2023-07-31T15:32:21;6.75;;;0.50;;
29432;SDS011;16405;53.964;13.448;2023-07-31T15:34:48;16.50;;;1.00;;
29432;SDS011;16405;53.964;13.448;2023-07-31T15:37:14;7.57;;;0.70;;
29432;SDS011;16405;53.964;13.448;2023-07-31T15:39:42;2.55;;;0.40;;
29432;SDS011;16405;53.964;13.448;2023-07-31T15:42:08;1.80;;;0.20;;
29432;SDS011;16405;53.964;13.448;2023-07-31T15:44:34;6.43;;;0.32;;
29432;SDS011;16405;53.964;13.448;2023-07-31T15:47:00;0.82;;;0.20;;
29432;SDS011;16405;53.964;13.448;2023-07-31T15:49:26;3.45;;;0.40;;
29432;SDS011;16405;53.964;13.448;2023-07-31T15:51:54;0.40;;;0.30;;
29432;SDS011;16405;53.964;13.448;2023-07-31T15:54:19;3.70;;;0.73;;
29432;SDS011;16405;53.964;13.448;2023-07-31T15:56:45;3.45;;;0.57;;
29432;SDS011;16405;53.964;13.448;2023-07-31T15:59:11;1.38;;;0.40;;
29432;SDS011;16405;53.964;13.448;2023-07-31T16:01:37;2.20;;;0.60;;
29432;SDS011;16405;53.964;13.448;2023-07-31T16:04:02;2.75;;;0.63;;
29432;SDS011;16405;53.964;13.448;2023-07-31T16:06:28;3.15;;;0.60;;
29432;SDS011;16405;53.964;13.448;2023-07-31T16:08:59;1.58;;;0.50;;
29432;SDS011;16405;53.964;13.448;2023-07-31T16:11:24;5.45;;;0.70;;
29432;SDS011;16405;53.964;13.448;2023-07-31T16:13:51;3.03;;;0.70;;
29432;SDS011;16405;53.964;13.448;2023-07-31T16:16:17;1.90;;;0.73;;
29432;SDS011;16405;53.964;13.448;2023-07-31T16:18:45;1.55;;;0.80;;
29432;SDS011;16405;53.964;13.448;2023-07-31T16:21:10;8.45;;;1.33;;
29432;SDS011;16405;53.964;13.448;2023-07-31T16:23:36;6.45;;;1.02;;
29432;SDS011;16405;53.964;13.448;2023-07-31T16:26:02;2.20;;;1.20;;
29432;SDS011;16405;53.964;13.448;2023-07-31T16:28:27;2.65;;;1.00;;
29432;SDS011;16405;53.964;13.448;2023-07-31T16:30:54;3.97;;;1.10;;
29432;SDS011;16405;53.964;13.448;2023-07-31T16:33:20;4.63;;;1.08;;
29432;SDS011;16405;53.964;13.448;2023-07-31T16:35:45;1.90;;;1.00;;
29432;SDS011;16405;53.964;13.448;2023-07-31T16:38:11;3.63;;;0.90;;
29432;SDS011;16405;53.964;13.448;2023-07-31T16:40:37;3.80;;;1.05;;
29432;SDS011;16405;53.964;13.448;2023-07-31T16:43:06;2.20;;;0.90;;
29432;SDS011;16405;53.964;13.448;2023-07-31T16:45:32;1.55;;;0.77;;
29432;SDS011;16405;53.964;13.448;2023-07-31T16:47:58;3.78;;;1.27;;
29432;SDS011;16405;53.964;13.448;2023-07-31T16:50:25;1.77;;;0.95;;
29432;SDS011;16405;53.964;13.448;2023-07-31T16:52:51;1.77;;;0.90;;
29432;SDS011;16405;53.964;13.448;2023-07-31T16:55:17;3.72;;;1.08;;
29432;SDS011;16405;53.964;13.448;2023-07-31T16:57:44;1.70;;;0.90;;
29432;SDS011;16405;53.964;13.448;2023-07-31T17:00:10;1.60;;;0.82;;
29432;SDS011;16405;53.964;13.448;2023-07-31T17:02:36;1.70;;;0.80;;
29432;SDS011;16405;53.964;13.448;2023-07-31T17:05:02;2.35;;;0.80;;
29432;SDS011;16405;53.964;13.448;2023-07-31T17:07:29;1.90;;;1.00;;
29432;SDS011;16405;53.964;13.448;2023-07-31T17:09:55;2.33;;;1.02;;
29432;SDS011;16405;53.964;13.448;2023-07-31T17:12:22;2.35;;;0.85;;
29432;SDS011;16405;53.964;13.448;2023-07-31T17:14:48;3.25;;;1.17;;
29432;SDS011;16405;53.964;13.448;2023-07-31T17:17:14;1.70;;;1.20;;
29432;SDS011;16405;53.964;13.448;2023-07-31T17:19:39;2.85;;;1.35;;
29432;SDS011;16405;53.964;13.448;2023-07-31T17:22:05;3.63;;;1.05;;
29432;SDS011;16405;53.964;13.448;2023-07-31T17:24:31;1.73;;;1.17;;
29432;SDS011;16405;53.964;13.448;2023-07-31T17:26:57;2.05;;;0.82;;
29432;SDS011;16405;53.964;13.448;2023-07-31T17:29:27;3.65;;;1.10;;
29432;SDS011;16405;53.964;13.448;2023-07-31T17:31:54;1.67;;;1.00;;
29432;SDS011;16405;53.964;13.448;2023-07-31T17:34:20;4.57;;;0.95;;
29432;SDS011;16405;53.964;13.448;2023-07-31T17:36:46;1.95;;;0.90;;
29432;SDS011;16405;53.964;13.448;2023-07-31T17:39:13;5.55;;;0.93;;